Yiyuan, China
Current Conditions -  °F | °C
As of 3:00 PM on Saturday 25 Oct 2014 (Local Time) from ZSJN Reporting Station
Clear Clear  
Wind Chill: 84°   Ceiling: Unl
Heat Index: 84°   Visibility: 6mi
Dew Point: 41°   Wind: 13mph
Humidity: 22%   Direction: 230°SW
Pressure: 29.83"   Gusts: NA
Location:  36.18°N, 118.15°E
Report Text: ZSJN 250700Z 23006MPS CAVOK 29/05 Q1010 NOSIG
Loading
Personal Weather Stations






























Interactive Weather Map
Tropical Storm Tracking
New forecast layout! Learn more

10-Day Weather Forecast

Advertisements
Track Severe Weather on mobile